Astoria, South Dakota
Current Conditions -  °F | °C
As of 12:54 PM on Monday 20 Oct 2014 (Local Time) from KCNB Reporting Station
Clear Clear  
Wind Chill: 19°   Ceiling: Unl
Heat Index: 19°   Visibility: 10mi
Dew Point:   Wind: 9mph
Humidity: 42%   Direction: 320°NW
Pressure: 30.06"   Gusts: NA
Location:  44.56°N, 96.55°W
Report Text: KCNB 201754Z AUTO 32008KT 10SM CLR 19/06 A3006 RMK AO2 T01850055 10185 20065
Loading
Personal Weather Stations






























Interactive Weather Map
Tropical Storm Tracking
New forecast layout! Learn more

10-Day Weather Forecast

Advertisements
Track Severe Weather on mobile